createdAt,value
2022-08-10T00:02:10.963Z,40.70
2022-08-10T00:05:54.873Z,40.10
2022-08-10T00:09:51.037Z,39.90
2022-08-10T00:13:33.122Z,39.90
2022-08-10T00:17:14.826Z,40.00
2022-08-10T00:20:56.551Z,40.00
2022-08-10T00:24:43.033Z,38.00
2022-08-10T00:28:24.905Z,39.20
2022-08-10T00:32:06.742Z,39.10
2022-08-10T00:35:48.799Z,39.10
2022-08-10T00:39:30.579Z,39.40
2022-08-10T00:43:23.572Z,39.20
2022-08-10T00:47:06.110Z,40.00
2022-08-10T00:50:48.961Z,39.00
2022-08-10T00:54:31.011Z,39.50
2022-08-10T00:58:12.685Z,40.20
2022-08-10T01:02:09.315Z,39.70
2022-08-10T01:05:56.217Z,39.80
2022-08-10T01:09:55.741Z,40.20
2022-08-10T01:13:44.483Z,40.20
2022-08-10T01:17:49.679Z,38.80
2022-08-10T01:21:56.928Z,39.70
2022-08-10T01:26:11.710Z,40.00
2022-08-10T01:29:57.669Z,40.50
2022-08-10T01:33:57.866Z,40.90
2022-08-10T01:38:16.047Z,40.60
2022-08-10T01:41:58.486Z,38.60
2022-08-10T01:45:44.796Z,38.50
2022-08-10T01:49:27.685Z,39.60
2022-08-10T01:53:10.802Z,40.00
2022-08-10T01:56:53.219Z,40.40
2022-08-10T02:00:35.622Z,40.50
2022-08-10T02:04:17.569Z,40.80
2022-08-10T02:07:59.849Z,41.00
2022-08-10T02:12:06.376Z,41.00
2022-08-10T02:16:01.493Z,41.10
2022-08-10T02:19:43.459Z,40.80
2022-08-10T02:23:25.649Z,40.80
2022-08-10T02:27:07.372Z,39.10
2022-08-10T02:30:49.782Z,39.90
2022-08-10T02:34:33.087Z,40.60
2022-08-10T02:38:14.874Z,43.10
2022-08-10T02:45:02.055Z,43.70
2022-08-10T02:46:07.388Z,44.00
2022-08-10T02:49:50.221Z,46.40
2022-08-10T02:53:54.574Z,45.20
2022-08-10T02:57:36.519Z,46.20
2022-08-10T03:01:42.350Z,44.60
2022-08-10T03:05:24.260Z,44.30
2022-08-10T03:09:06.566Z,47.20
2022-08-10T03:12:52.265Z,46.20
2022-08-10T03:16:34.218Z,45.20
2022-08-10T03:20:38.143Z,44.90
2022-08-10T03:24:30.289Z,45.10
2022-08-10T03:28:18.226Z,48.00
2022-08-10T03:32:02.609Z,46.80
2022-08-10T03:36:43.309Z,46.10
2022-08-10T03:39:46.040Z,45.80
2022-08-10T03:43:27.817Z,45.40
2022-08-10T03:47:15.270Z,48.40
2022-08-10T03:50:58.261Z,48.60
2022-08-10T03:54:39.929Z,48.20
2022-08-10T03:58:21.615Z,46.90
2022-08-10T04:02:47.060Z,46.40
2022-08-10T04:06:05.601Z,48.40
2022-08-10T04:09:55.056Z,48.50
2022-08-10T04:13:38.091Z,47.60
2022-08-10T04:17:57.178Z,47.30
2022-08-10T04:21:23.560Z,47.80
2022-08-10T04:25:05.508Z,46.80
2022-08-10T04:28:48.927Z,46.70
2022-08-10T04:32:31.945Z,46.60
2022-08-10T04:36:13.948Z,46.50
2022-08-10T04:39:55.706Z,46.40
2022-08-10T04:43:37.509Z,46.60
2022-08-10T04:47:57.814Z,45.30
2022-08-10T04:51:20.984Z,44.30
2022-08-10T04:55:02.670Z,44.30
2022-08-10T04:58:44.357Z,44.70
2022-08-10T05:02:31.471Z,45.20
2022-08-10T05:06:13.963Z,46.40
2022-08-10T05:10:03.124Z,46.50
2022-08-10T05:13:46.921Z,55.50
2022-08-10T05:17:29.688Z,56.50
2022-08-10T05:21:11.400Z,61.30
2022-08-10T05:25:14.791Z,67.70
2022-08-10T05:28:56.469Z,60.70
2022-08-10T05:32:57.873Z,67.20
2022-08-10T05:36:39.943Z,64.60
2022-08-10T05:40:22.580Z,59.90
2022-08-10T05:44:04.376Z,59.10
2022-08-10T05:48:42.019Z,56.40
2022-08-10T05:51:47.687Z,53.40
2022-08-10T05:55:29.700Z,53.00
2022-08-10T05:59:16.971Z,52.40
2022-08-10T06:03:18.621Z,51.10
2022-08-10T06:07:07.233Z,50.90
2022-08-10T06:12:23.260Z,50.90
2022-08-10T06:15:05.982Z,48.90
2022-08-10T06:18:51.661Z,46.30
2022-08-10T06:22:33.494Z,48.20
2022-08-10T06:26:19.621Z,48.60
2022-08-10T06:30:05.169Z,49.00
2022-08-10T06:34:02.706Z,49.10
2022-08-10T06:37:50.787Z,48.60
2022-08-10T06:41:57.835Z,49.40
2022-08-10T06:45:42.480Z,48.50
2022-08-10T06:49:24.267Z,50.90
2022-08-10T06:53:11.151Z,48.40
2022-08-10T06:57:16.655Z,49.20
2022-08-10T07:00:56.349Z,48.80
2022-08-10T07:04:59.675Z,48.60
2022-08-10T07:08:41.473Z,50.10
2022-08-10T07:12:23.222Z,51.40
2022-08-10T07:16:05.811Z,48.80
2022-08-10T07:19:50.171Z,48.70
2022-08-10T07:23:57.603Z,49.50
2022-08-10T07:27:59.243Z,49.40
2022-08-10T07:31:56.426Z,48.40
2022-08-10T07:35:42.270Z,49.90
2022-08-10T07:40:03.477Z,49.30
2022-08-10T07:43:26.944Z,49.20
2022-08-10T07:47:08.901Z,48.40
2022-08-10T07:50:50.594Z,48.00
2022-08-10T07:54:32.498Z,48.30
2022-08-10T07:58:15.185Z,46.80
2022-08-10T08:01:57.966Z,46.20
2022-08-10T08:05:58.777Z,46.90
2022-08-10T08:09:57.005Z,46.10
2022-08-10T08:13:42.452Z,45.40
2022-08-10T08:17:35.760Z,44.70
2022-08-10T08:24:04.779Z,43.70
2022-08-10T08:25:20.454Z,43.30
2022-08-10T08:29:04.888Z,43.20
2022-08-10T08:32:46.891Z,42.70
2022-08-10T08:36:28.581Z,42.30
2022-08-10T08:40:25.607Z,41.90
2022-08-10T08:44:10.622Z,41.80
2022-08-10T08:48:10.522Z,39.70
2022-08-10T08:52:09.714Z,39.80
2022-08-10T08:56:19.005Z,39.30
2022-08-10T09:00:01.621Z,38.90
2022-08-10T09:04:04.179Z,38.70
2022-08-10T09:08:17.389Z,38.20
2022-08-10T09:12:17.618Z,38.20
2022-08-10T09:16:00.858Z,37.20
2022-08-10T09:19:50.044Z,36.20
2022-08-10T09:24:05.325Z,34.40
2022-08-10T09:27:44.020Z,32.50
2022-08-10T09:31:34.590Z,34.40
2022-08-10T09:36:22.105Z,33.90
2022-08-10T09:40:48.552Z,32.20
2022-08-10T09:44:09.589Z,30.80
2022-08-10T09:48:01.690Z,31.00
2022-08-10T09:51:46.413Z,30.90
2022-08-10T09:56:18.218Z,31.60
2022-08-10T10:00:10.343Z,30.30
2022-08-10T10:03:55.372Z,28.20
2022-08-10T10:07:38.543Z,28.80
2022-08-10T10:11:23.349Z,28.10
2022-08-10T10:15:24.495Z,29.20
2022-08-10T10:19:25.816Z,28.40
2022-08-10T10:23:14.803Z,28.80
2022-08-10T10:26:56.500Z,29.30
2022-08-10T10:30:45.945Z,28.50
2022-08-10T10:34:30.675Z,28.30
2022-08-10T10:38:12.452Z,26.80
2022-08-10T10:42:35.024Z,27.70
2022-08-10T10:46:15.022Z,26.00
2022-08-10T10:50:12.901Z,24.30
2022-08-10T10:53:54.578Z,25.60
2022-08-10T10:57:58.622Z,25.40
2022-08-10T11:01:54.448Z,25.30
2022-08-10T11:05:39.220Z,23.80
2022-08-10T11:10:08.737Z,23.00
2022-08-10T11:14:24.598Z,23.60
2022-08-10T11:17:52.496Z,23.50
2022-08-10T11:21:40.683Z,24.40
2022-08-10T11:25:24.609Z,24.40
2022-08-10T11:29:07.922Z,24.70
2022-08-10T11:33:01.555Z,22.20
2022-08-10T11:36:48.130Z,22.20
2022-08-10T11:40:31.816Z,22.10
2022-08-10T11:44:17.225Z,22.40
2022-08-10T11:47:59.498Z,21.00
2022-08-10T11:51:52.457Z,22.80
2022-08-10T11:55:34.694Z,21.60
2022-08-10T11:59:35.674Z,21.90
2022-08-10T12:03:17.314Z,22.60
2022-08-10T12:06:59.110Z,22.30
2022-08-10T12:10:41.136Z,21.50
2022-08-10T12:14:30.664Z,20.90
2022-08-10T12:18:15.838Z,21.40
2022-08-10T12:22:05.133Z,21.40
2022-08-10T12:25:57.645Z,21.10
2022-08-10T12:29:45.046Z,21.00
2022-08-10T12:33:27.300Z,20.10
2022-08-10T12:37:11.865Z,21.10
2022-08-10T12:40:55.918Z,20.60
2022-08-10T12:45:07.042Z,20.60
2022-08-10T12:48:52.060Z,20.90
2022-08-10T12:52:48.396Z,21.00
2022-08-10T12:56:39.909Z,18.10
2022-08-10T13:00:29.133Z,19.60
2022-08-10T13:04:23.828Z,19.70
2022-08-10T13:08:28.150Z,19.30
2022-08-10T13:12:39.073Z,19.70
2022-08-10T13:16:13.761Z,19.20
2022-08-10T13:19:59.987Z,19.30
2022-08-10T13:24:03.542Z,19.60
2022-08-10T13:28:03.162Z,19.80
2022-08-10T13:32:09.207Z,19.60
2022-08-10T13:35:57.560Z,19.60
2022-08-10T13:39:57.728Z,17.40
2022-08-10T13:43:51.389Z,17.80
2022-08-10T13:47:47.999Z,18.50
2022-08-10T13:51:56.883Z,18.90
2022-08-10T13:55:53.292Z,19.00
2022-08-10T14:00:36.849Z,18.20
2022-08-10T14:03:37.958Z,18.90
2022-08-10T14:07:19.674Z,18.80
2022-08-10T14:11:10.882Z,18.10
2022-08-10T14:14:53.926Z,18.60
2022-08-10T14:18:35.687Z,18.60
2022-08-10T14:22:19.518Z,18.70
2022-08-10T14:26:15.897Z,17.50
2022-08-10T14:29:58.136Z,18.40
2022-08-10T14:33:41.674Z,17.50
2022-08-10T14:37:33.167Z,17.80
2022-08-10T14:42:02.581Z,17.70
2022-08-10T14:45:24.141Z,17.60
2022-08-10T14:49:25.651Z,17.90
2022-08-10T14:53:09.399Z,18.20
2022-08-10T14:56:51.879Z,18.40
2022-08-10T15:00:42.039Z,18.20
2022-08-10T15:04:24.892Z,18.50
2022-08-10T15:08:08.699Z,18.50
2022-08-10T15:12:15.110Z,18.30
2022-08-10T15:16:12.105Z,18.30
2022-08-10T15:20:04.302Z,18.30
2022-08-10T15:24:05.540Z,18.40
2022-08-10T15:27:54.457Z,18.30
2022-08-10T15:32:00.533Z,18.30
2022-08-10T15:36:00.474Z,17.90
2022-08-10T15:40:24.507Z,17.80
2022-08-10T15:44:09.936Z,17.50
2022-08-10T15:47:52.995Z,17.70
2022-08-10T15:51:53.987Z,17.60
2022-08-10T15:55:43.102Z,17.90
2022-08-10T15:59:33.865Z,18.10
2022-08-10T16:03:23.382Z,18.10
2022-08-10T16:07:06.076Z,18.30
2022-08-10T16:11:05.338Z,18.20
2022-08-10T16:14:48.522Z,18.30
2022-08-10T16:18:31.574Z,18.30
2022-08-10T16:22:35.736Z,18.40
2022-08-10T16:26:17.385Z,18.40
2022-08-10T16:30:03.973Z,18.50
2022-08-10T16:33:52.955Z,18.40
2022-08-10T16:37:58.180Z,18.40
2022-08-10T16:42:04.155Z,18.40
2022-08-10T16:45:41.426Z,18.30
2022-08-10T16:49:23.114Z,18.30
2022-08-10T16:53:05.572Z,18.40
2022-08-10T16:56:49.044Z,18.40
2022-08-10T17:00:31.438Z,18.30
2022-08-10T17:04:14.440Z,18.30
2022-08-10T17:08:22.519Z,18.40
2022-08-10T17:12:05.015Z,18.50
2022-08-10T17:15:50.382Z,18.40
2022-08-10T17:19:35.168Z,18.50
2022-08-10T17:23:16.833Z,18.50
2022-08-10T17:26:59.040Z,18.50
2022-08-10T17:30:57.983Z,18.60
2022-08-10T17:34:40.613Z,18.70
2022-08-10T17:38:22.874Z,18.70
2022-08-10T17:42:04.691Z,18.80
2022-08-10T17:45:49.169Z,18.70
2022-08-10T17:49:32.188Z,18.80
2022-08-10T17:53:14.703Z,18.80
2022-08-10T17:56:57.799Z,18.90
2022-08-10T18:00:43.635Z,18.90
2022-08-10T18:04:25.320Z,19.00
2022-08-10T18:08:11.885Z,19.10
2022-08-10T18:11:56.226Z,19.20
2022-08-10T18:15:39.219Z,19.20
2022-08-10T18:19:20.925Z,19.20
2022-08-10T18:23:03.008Z,19.30
2022-08-10T18:26:45.978Z,19.30
2022-08-10T18:30:28.058Z,19.50
2022-08-10T18:34:12.886Z,19.40
2022-08-10T18:37:55.587Z,19.80
2022-08-10T18:42:00.470Z,20.10
2022-08-10T18:45:42.353Z,20.00
2022-08-10T18:49:46.824Z,20.20
2022-08-10T18:53:28.490Z,20.40
2022-08-10T18:57:13.079Z,20.80
2022-08-10T19:01:13.256Z,21.00
2022-08-10T19:05:30.666Z,21.30
2022-08-10T19:09:46.656Z,21.40
2022-08-10T19:13:50.939Z,21.40
2022-08-10T19:18:05.615Z,21.80
2022-08-10T19:21:41.489Z,21.70
2022-08-10T19:26:39.314Z,21.80
2022-08-10T19:30:09.097Z,22.20
2022-08-10T19:33:49.090Z,22.10
2022-08-10T19:37:33.884Z,22.20
2022-08-10T19:41:41.943Z,22.10
2022-08-10T19:45:55.403Z,22.40
2022-08-10T19:49:52.211Z,22.30
2022-08-10T19:53:52.706Z,22.60
2022-08-10T19:57:57.862Z,22.70
2022-08-10T20:01:54.989Z,22.90
2022-08-10T20:05:41.283Z,23.00
2022-08-10T20:09:45.087Z,22.90
2022-08-10T20:13:42.077Z,23.30
2022-08-10T20:17:51.464Z,23.30
2022-08-10T20:21:39.884Z,23.40
2022-08-10T20:25:27.907Z,23.60
2022-08-10T20:29:16.368Z,23.80
2022-08-10T20:33:38.108Z,23.80
2022-08-10T20:38:02.948Z,23.90
2022-08-10T20:41:26.457Z,24.80
2022-08-10T20:45:08.640Z,24.60
2022-08-10T20:48:50.334Z,24.50
2022-08-10T20:52:32.018Z,24.70
2022-08-10T20:56:16.928Z,24.80
2022-08-10T21:00:07.935Z,24.80
2022-08-10T21:04:13.413Z,25.10
2022-08-10T21:08:06.635Z,26.50
2022-08-10T21:12:07.081Z,25.90
2022-08-10T21:16:01.286Z,33.60
2022-08-10T21:19:55.383Z,32.00
2022-08-10T21:23:37.916Z,32.10
2022-08-10T21:27:38.603Z,29.60
2022-08-10T21:31:22.112Z,28.60
2022-08-10T21:35:36.923Z,29.30
2022-08-10T21:39:23.005Z,34.10
2022-08-10T21:43:49.045Z,32.80
2022-08-10T21:48:07.261Z,30.30
2022-08-10T21:52:19.710Z,29.70
2022-08-10T21:56:29.951Z,29.30
2022-08-10T22:00:30.914Z,29.10
2022-08-10T22:04:31.098Z,31.60
2022-08-10T22:08:31.493Z,30.30
2022-08-10T22:12:32.523Z,30.00
2022-08-10T22:16:37.534Z,29.90
2022-08-10T22:20:44.531Z,29.90
2022-08-10T22:24:57.048Z,30.60
2022-08-10T22:29:07.563Z,34.40
2022-08-10T22:33:07.999Z,30.50
2022-08-10T22:37:17.290Z,30.30
2022-08-10T22:41:19.937Z,30.30
2022-08-10T22:45:22.197Z,30.00
2022-08-10T22:49:03.856Z,30.30
2022-08-10T22:53:02.764Z,30.20
2022-08-10T22:57:04.651Z,30.00
2022-08-10T23:01:06.559Z,45.40
2022-08-10T23:04:48.727Z,41.80
2022-08-10T23:08:50.670Z,38.30
2022-08-10T23:12:36.942Z,35.80
2022-08-10T23:16:39.622Z,33.50
2022-08-10T23:20:21.411Z,34.80
2022-08-10T23:24:03.230Z,33.80
2022-08-10T23:27:44.992Z,34.60
2022-08-10T23:32:00.669Z,33.70
2022-08-10T23:36:27.257Z,33.80
2022-08-10T23:39:41.244Z,33.70
2022-08-10T23:43:53.326Z,33.60
2022-08-10T23:47:32.549Z,33.60
2022-08-10T23:51:17.092Z,33.80
2022-08-10T23:55:05.774Z,35.20
2022-08-10T23:58:48.066Z,35.30
